Time;durP1;ratioP1;P1;durP2;ratioP2;P2;SDS_P1;SDS_P2;PMS_P1;PMS_P2;Temp;Humidity;BMP_temperature;BMP_pressure;BME280_temperature;BME280_humidity;BME280_pressure;Samples;Min_cycle;Max_cycle;Signal;HPM_P1;HPM_P2
2023/08/30 00:01:56;;;;;;;3.90;2.50;;;;;;;16.26;70.44;98921.59;5035518;28;20692;-74
2023/08/30 00:04:22;;;;;;;3.93;3.13;;;;;;;16.26;70.56;98908.34;5031272;28;20212;-74
2023/08/30 00:06:48;;;;;;;3.23;2.90;;;;;;;16.20;70.49;98906.28;5034200;28;20240;-74
2023/08/30 00:09:13;;;;;;;2.97;2.73;;;;;;;16.10;70.76;98907.19;5035961;28;20205;-73
2023/08/30 00:11:38;;;;;;;4.77;3.93;;;;;;;15.99;71.00;98910.06;5034438;28;20445;-73
2023/08/30 00:14:06;;;;;;;4.00;3.23;;;;;;;15.94;71.20;98907.03;5036294;28;20237;-73
2023/08/30 00:16:33;;;;;;;4.25;3.33;;;;;;;15.90;71.33;98897.69;5036099;28;20238;-74
2023/08/30 00:18:58;;;;;;;4.40;3.60;;;;;;;15.88;71.46;98891.72;5032510;28;20212;-73
2023/08/30 00:21:25;;;;;;;3.47;3.27;;;;;;;15.89;71.47;98899.50;5035059;28;20238;-74
2023/08/30 00:23:51;;;;;;;3.95;3.47;;;;;;;15.89;71.47;98901.34;5035286;28;20502;-74
2023/08/30 00:26:16;;;;;;;3.10;2.83;;;;;;;15.87;71.50;98905.94;5033503;28;20690;-73
2023/08/30 00:28:42;;;;;;;3.40;2.83;;;;;;;15.85;71.51;98902.59;5037045;28;20273;-74
2023/08/30 00:31:07;;;;;;;3.33;3.13;;;;;;;15.84;71.56;98901.78;5040305;28;20285;-74
2023/08/30 00:33:32;;;;;;;6.00;4.17;;;;;;;15.84;71.52;98906.25;5039139;28;20202;-74
2023/08/30 00:35:58;;;;;;;3.80;3.40;;;;;;;15.80;71.60;98910.19;5039315;28;20443;-74
2023/08/30 00:38:27;;;;;;;3.30;3.00;;;;;;;15.75;71.74;98905.31;5021624;28;20198;-74
2023/08/30 00:40:52;;;;;;;4.72;3.40;;;;;;;15.72;71.98;98907.44;5040028;28;20240;-74
2023/08/30 00:43:19;;;;;;;3.77;3.47;;;;;;;15.68;71.86;98913.00;5022951;28;20263;-74
2023/08/30 00:45:44;;;;;;;4.15;3.13;;;;;;;15.66;71.98;98914.94;5037876;28;20193;-74
2023/08/30 00:48:11;;;;;;;2.90;2.67;;;;;;;15.60;71.95;98904.09;5038975;28;20208;-74
2023/08/30 00:50:37;;;;;;;5.13;3.05;;;;;;;15.47;72.11;98902.66;5036425;28;20902;-74
2023/08/30 00:53:05;;;;;;;3.58;2.88;;;;;;;15.34;72.52;98909.22;5041293;28;20263;-74
2023/08/30 00:55:34;;;;;;;3.10;2.80;;;;;;;15.23;72.77;98907.63;5041236;28;20292;-74
2023/08/30 00:58:01;;;;;;;6.32;3.20;;;;;;;15.19;73.03;98907.06;5026040;28;20291;-74
2023/08/30 01:00:28;;;;;;;9.57;3.47;;;;;;;15.20;72.79;98902.59;5021086;28;20275;-74
2023/08/30 01:02:55;;;;;;;3.60;3.30;;;;;;;15.22;72.75;98904.09;5038431;28;20555;-74
2023/08/30 01:05:20;;;;;;;4.00;2.75;;;;;;;15.24;72.84;98898.69;5037822;28;20403;-74
2023/08/30 01:07:45;;;;;;;3.97;2.57;;;;;;;15.21;72.71;98899.81;5039499;28;20264;-75
2023/08/30 01:10:11;;;;;;;3.77;2.80;;;;;;;15.09;72.80;98897.47;5037831;28;20738;-74
2023/08/30 01:12:43;;;;;;;3.90;3.27;;;;;;;14.97;73.27;98902.09;5021447;28;20193;-75
2023/08/30 01:15:29;;;;;;;8.00;3.20;;;;;;;14.88;73.49;98897.66;5039022;28;20268;-74
2023/08/30 01:17:56;;;;;;;3.70;3.40;;;;;;;14.87;73.45;98899.47;5039874;28;20221;-74
2023/08/30 01:20:25;;;;;;;4.05;3.53;;;;;;;14.87;73.49;98898.66;5023836;28;20209;-74
2023/08/30 01:23:09;;;;;;;3.55;3.00;;;;;;;14.92;73.55;98899.06;5040259;28;20208;-75
2023/08/30 01:26:12;;;;;;;4.82;3.58;;;;;;;14.93;73.50;98900.72;5021848;28;20347;-74
2023/08/30 01:28:39;;;;;;;4.22;3.45;;;;;;;14.92;73.53;98896.41;5022407;28;20181;-74
2023/08/30 01:31:07;;;;;;;4.03;3.55;;;;;;;14.94;73.50;98890.00;5038409;28;20307;-74
2023/08/30 01:33:34;;;;;;;3.70;3.30;;;;;;;14.98;73.44;98890.53;5019610;28;20615;-74
2023/08/30 01:36:01;;;;;;;4.18;3.78;;;;;;;15.02;73.34;98879.53;5039528;28;20742;-74
2023/08/30 01:38:29;;;;;;;3.95;3.65;;;;;;;15.02;73.52;98873.44;5036778;28;20190;-75
2023/08/30 01:40:57;;;;;;;4.70;3.53;;;;;;;14.97;73.56;98870.38;5022547;28;20699;-74
2023/08/30 01:43:26;;;;;;;5.28;4.15;;;;;;;14.92;73.54;98867.31;5038643;28;20210;-74
2023/08/30 01:45:52;;;;;;;4.43;4.03;;;;;;;14.88;73.67;98876.50;5037734;28;20198;-74
2023/08/30 01:48:19;;;;;;;4.20;3.80;;;;;;;14.90;73.80;98866.63;5040823;28;20194;-75
2023/08/30 01:50:46;;;;;;;3.70;3.40;;;;;;;14.89;73.67;98862.31;5039303;28;20186;-74
2023/08/30 01:53:13;;;;;;;4.93;3.27;;;;;;;14.89;73.45;98872.91;5039220;28;20225;-74
2023/08/30 01:55:39;;;;;;;4.03;3.65;;;;;;;14.87;73.50;98875.69;5039878;28;20707;-74
2023/08/30 01:58:06;;;;;;;3.92;3.63;;;;;;;14.90;73.49;98879.84;5038043;28;20201;-74
2023/08/30 02:00:32;;;;;;;4.35;3.95;;;;;;;14.90;73.34;98880.69;5020766;28;20241;-74
2023/08/30 02:02:58;;;;;;;3.65;3.35;;;;;;;14.92;73.24;98883.19;5035574;28;20205;-74
2023/08/30 02:05:23;;;;;;;3.53;3.23;;;;;;;14.93;73.40;98880.41;5034059;28;20208;-74
2023/08/30 02:07:58;;;;;;;5.30;3.67;;;;;;;14.94;73.06;98873.31;5025283;28;20210;-75
2023/08/30 02:10:35;;;;;;;3.40;3.10;;;;;;;14.91;73.02;98876.25;5016232;28;20223;-74
2023/08/30 02:13:03;;;;;;;4.60;2.90;;;;;;;14.85;73.12;98882.09;5030669;28;20209;-74
2023/08/30 02:15:31;;;;;;;3.95;3.55;;;;;;;14.72;73.28;98875.31;5034413;28;20213;-74
2023/08/30 02:17:57;;;;;;;3.70;3.03;;;;;;;14.62;73.46;98874.47;5033400;28;20194;-75
2023/08/30 02:20:23;;;;;;;4.30;3.27;;;;;;;14.51;73.70;98880.72;5032969;28;20217;-75
2023/08/30 02:22:48;;;;;;;3.67;3.37;;;;;;;14.42;73.66;98881.56;5029654;28;20535;-75
2023/08/30 02:25:14;;;;;;;3.10;2.80;;;;;;;14.32;73.98;98878.09;5032374;28;20197;-74
2023/08/30 02:27:39;;;;;;;3.03;2.77;;;;;;;14.25;74.31;98883.09;5027569;28;20237;-74
2023/08/30 02:30:05;;;;;;;3.73;3.43;;;;;;;14.17;74.17;98875.03;5033303;28;20743;-74
2023/08/30 02:32:31;;;;;;;2.90;2.57;;;;;;;14.11;74.22;98873.75;5032107;28;20553;-74
2023/08/30 02:34:57;;;;;;;3.10;2.90;;;;;;;14.07;74.42;98866.25;5035503;28;20998;-75
2023/08/30 02:37:22;;;;;;;3.50;3.20;;;;;;;14.07;74.29;98869.75;5037738;28;20198;-74
2023/08/30 02:39:50;;;;;;;5.55;3.45;;;;;;;14.10;74.27;98871.28;5013835;28;20967;-75
2023/08/30 02:42:15;;;;;;;3.30;3.00;;;;;;;14.13;74.22;98871.00;5034455;28;20285;-74
2023/08/30 02:44:41;;;;;;;5.40;3.90;;;;;;;14.17;74.22;98867.09;5030556;28;20209;-74
2023/08/30 02:47:07;;;;;;;3.83;3.00;;;;;;;14.21;73.91;98871.13;5013712;28;20206;-75
2023/08/30 02:49:33;;;;;;;4.60;4.03;;;;;;;14.25;73.84;98864.59;5033933;28;20328;-74
2023/08/30 02:51:58;;;;;;;5.13;3.37;;;;;;;14.28;73.73;98866.94;5014830;28;20214;-75
2023/08/30 02:54:24;;;;;;;5.30;3.37;;;;;;;14.31;73.83;98868.47;5032811;28;20213;-75
2023/08/30 02:56:50;;;;;;;4.10;3.33;;;;;;;14.32;73.83;98859.59;5011606;28;20830;-75
2023/08/30 02:59:15;;;;;;;3.50;3.20;;;;;;;14.33;73.72;98867.38;5013673;28;20201;-75
2023/08/30 03:01:43;;;;;;;5.20;3.55;;;;;;;14.36;73.62;98864.44;5031690;28;20775;-74
2023/08/30 03:04:10;;;;;;;5.13;3.80;;;;;;;14.34;73.72;98858.50;5014746;28;20692;-74
2023/08/30 03:06:36;;;;;;;4.20;3.90;;;;;;;14.34;74.07;98855.84;5034727;28;20467;-74
2023/08/30 03:09:06;;;;;;;3.80;3.50;;;;;;;14.35;74.21;98857.50;5018524;28;20248;-74
2023/08/30 03:11:34;;;;;;;3.78;3.47;;;;;;;14.35;74.02;98856.69;5017588;28;20444;-74
2023/08/30 03:14:00;;;;;;;3.63;3.33;;;;;;;14.32;74.08;98863.06;5018315;28;20217;-75
2023/08/30 03:16:26;;;;;;;3.60;3.30;;;;;;;14.29;73.98;98863.34;5019424;28;20484;-74
2023/08/30 03:18:52;;;;;;;4.38;3.90;;;;;;;14.27;73.95;98862.66;5017086;28;20300;-74
2023/08/30 03:21:18;;;;;;;4.30;3.87;;;;;;;14.28;73.94;98863.47;5037148;28;20198;-75
2023/08/30 03:23:43;;;;;;;3.53;3.23;;;;;;;14.30;74.22;98857.09;5036049;28;20309;-75
2023/08/30 03:26:10;;;;;;;3.40;3.10;;;;;;;14.33;73.90;98855.97;5018448;28;20542;-75
2023/08/30 03:28:36;;;;;;;3.67;3.38;;;;;;;14.31;73.84;98842.91;5017654;28;20569;-74
2023/08/30 03:31:01;;;;;;;3.60;3.30;;;;;;;14.30;73.82;98843.06;5016609;28;20190;-75
2023/08/30 03:33:27;;;;;;;4.80;3.80;;;;;;;14.28;73.63;98842.34;5019457;28;20224;-74
2023/08/30 03:35:52;;;;;;;5.80;3.93;;;;;;;14.21;73.98;98838.63;5036680;28;20440;-75
2023/08/30 03:38:17;;;;;;;4.73;4.00;;;;;;;14.17;74.22;98843.31;5017588;28;21107;-74
2023/08/30 03:40:43;;;;;;;6.73;3.47;;;;;;;14.14;74.31;98847.06;5018893;28;20232;-75
2023/08/30 03:43:08;;;;;;;3.40;3.10;;;;;;;14.13;74.31;98857.78;5012686;28;20287;-74
2023/08/30 03:45:36;;;;;;;4.20;3.53;;;;;;;14.11;74.21;98851.81;5022691;28;20276;-74
2023/08/30 03:48:01;;;;;;;3.25;3.00;;;;;;;14.08;74.35;98855.56;5040685;28;20202;-74
2023/08/30 03:50:26;;;;;;;4.50;4.10;;;;;;;14.09;74.48;98857.22;5021695;28;20189;-74
2023/08/30 03:52:52;;;;;;;3.97;3.67;;;;;;;14.10;74.30;98850.97;5023032;28;20228;-74
2023/08/30 03:55:17;;;;;;;3.83;3.47;;;;;;;14.13;74.11;98857.78;5041358;28;20704;-74
2023/08/30 03:57:43;;;;;;;3.47;2.57;;;;;;;14.10;74.24;98858.06;5035986;28;20189;-75
2023/08/30 04:00:10;;;;;;;3.00;2.70;;;;;;;14.03;74.40;98849.84;5032039;28;20198;-75
2023/08/30 04:02:44;;;;;;;3.40;3.10;;;;;;;14.01;74.49;98850.97;5042825;28;20209;-75
2023/08/30 04:05:10;;;;;;;3.35;3.05;;;;;;;14.02;74.42;98855.28;5027851;28;20190;-74
2023/08/30 04:07:37;;;;;;;3.50;2.85;;;;;;;14.04;74.32;98855.97;5028667;28;20210;-75
2023/08/30 04:10:06;;;;;;;3.70;3.10;;;;;;;14.08;74.20;98862.66;5023602;28;20221;-74
2023/08/30 04:12:31;;;;;;;4.10;3.70;;;;;;;14.11;74.14;98863.19;5045568;28;20569;-75
2023/08/30 04:14:57;;;;;;;5.10;4.13;;;;;;;14.13;74.17;98858.63;5029151;28;20186;-75
2023/08/30 04:17:23;;;;;;;4.23;3.83;;;;;;;14.14;74.00;98862.09;5027837;28;20209;-75
2023/08/30 04:19:52;;;;;;;5.95;4.22;;;;;;;14.15;74.06;98869.06;5046815;28;20502;-75
2023/08/30 04:22:18;;;;;;;5.70;4.88;;;;;;;14.15;74.04;98867.25;5026510;28;20674;-75
2023/08/30 04:24:48;;;;;;;6.82;4.03;;;;;;;14.10;74.02;98872.09;5025138;28;20230;-77
2023/08/30 04:27:14;;;;;;;4.05;3.33;;;;;;;14.06;74.11;98862.78;5033989;28;20194;-77
2023/08/30 04:29:40;;;;;;;4.33;3.43;;;;;;;14.03;74.08;98862.22;5035119;28;20201;-76
2023/08/30 04:32:05;;;;;;;3.63;3.33;;;;;;;14.02;74.25;98869.31;5031348;28;20897;-76
2023/08/30 04:34:32;;;;;;;4.43;3.97;;;;;;;14.02;74.21;98858.75;5017159;28;20275;-76
2023/08/30 04:36:57;;;;;;;4.78;4.38;;;;;;;14.00;74.94;98865.16;5017081;28;21086;-76
2023/08/30 04:39:23;;;;;;;3.87;3.47;;;;;;;13.96;75.19;98867.25;5017295;28;20314;-77
2023/08/30 04:41:50;;;;;;;4.70;4.30;;;;;;;13.92;75.07;98869.31;5015464;28;20210;-77
2023/08/30 04:44:17;;;;;;;3.90;3.50;;;;;;;13.91;75.28;98857.09;5018078;28;20244;-77
2023/08/30 04:46:42;;;;;;;3.63;3.35;;;;;;;13.90;75.21;98857.22;5018707;28;20198;-77
2023/08/30 04:49:08;;;;;;;3.87;3.27;;;;;;;13.90;75.20;98870.41;5018990;28;20201;-77
2023/08/30 04:51:33;;;;;;;4.10;3.70;;;;;;;13.85;74.97;98862.91;5016896;28;20839;-77
2023/08/30 04:53:59;;;;;;;3.77;3.37;;;;;;;13.82;75.08;98875.53;5036030;28;20202;-77
2023/08/30 04:56:24;;;;;;;4.57;4.17;;;;;;;13.80;75.17;98870.41;5016970;28;20305;-76
2023/08/30 04:58:50;;;;;;;5.10;3.40;;;;;;;13.80;75.21;98866.91;5035482;28;20197;-77
2023/08/30 05:01:17;;;;;;;3.60;3.30;;;;;;;13.85;75.20;98864.69;5016720;28;20214;-77
2023/08/30 05:03:46;;;;;;;3.17;2.90;;;;;;;13.88;74.76;98867.91;5017906;28;20202;-77
2023/08/30 05:06:16;;;;;;;4.30;3.90;;;;;;;13.95;75.16;98874.31;5016305;28;20984;-77
2023/08/30 05:08:41;;;;;;;3.33;3.03;;;;;;;14.05;74.87;98870.84;5017653;28;20316;-77
2023/08/30 05:11:07;;;;;;;3.93;3.63;;;;;;;14.14;74.49;98876.13;5030267;28;20201;-77
2023/08/30 05:13:35;;;;;;;3.97;3.58;;;;;;;14.24;74.17;98877.97;5014302;28;20470;-77
2023/08/30 05:16:00;;;;;;;3.67;3.37;;;;;;;14.35;74.01;98883.09;5013565;28;20193;-77
2023/08/30 05:18:25;;;;;;;4.40;3.77;;;;;;;14.45;73.61;98875.19;5012375;28;20380;-77
2023/08/30 05:20:51;;;;;;;5.27;3.90;;;;;;;14.58;73.47;98876.59;5011041;28;20202;-77
2023/08/30 05:23:16;;;;;;;11.30;6.00;;;;;;;14.76;72.76;98881.97;5013682;28;20271;-77
2023/08/30 05:25:42;;;;;;;4.70;4.40;;;;;;;14.99;72.00;98879.84;5028709;28;20714;-77
2023/08/30 05:28:07;;;;;;;10.53;7.10;;;;;;;15.17;71.52;98882.53;5011520;28;20208;-77
2023/08/30 05:30:33;;;;;;;8.80;4.70;;;;;;;15.27;70.86;98872.75;5012023;28;20259;-77
2023/08/30 05:32:59;;;;;;;5.53;4.95;;;;;;;15.36;70.80;98872.88;5009387;28;20439;-77
2023/08/30 05:35:42;;;;;;;6.55;4.35;;;;;;;15.37;70.66;98872.72;5012647;28;20170;-77
2023/08/30 05:38:28;;;;;;;5.07;4.45;;;;;;;15.39;70.42;98867.28;5030393;28;20665;-77
2023/08/30 05:41:13;;;;;;;4.00;3.70;;;;;;;15.37;70.51;98866.63;5010562;28;20712;-77
2023/08/30 05:43:39;;;;;;;4.23;3.50;;;;;;;15.38;70.46;98865.63;5031582;28;20197;-77
2023/08/30 05:46:04;;;;;;;4.20;3.80;;;;;;;15.35;70.33;98861.47;5010082;28;20267;-77
2023/08/30 05:48:30;;;;;;;3.60;3.30;;;;;;;15.37;70.32;98863.97;5012935;28;20186;-77
2023/08/30 05:50:56;;;;;;;4.47;4.07;;;;;;;15.38;70.32;98863.81;5010238;28;20198;-77
2023/08/30 05:53:23;;;;;;;5.13;4.43;;;;;;;15.37;70.39;98862.16;5013570;28;20213;-77
2023/08/30 05:55:48;;;;;;;3.17;2.97;;;;;;;15.39;70.33;98864.63;5031334;28;20559;-77
2023/08/30 05:58:15;;;;;;;5.07;4.17;;;;;;;15.41;70.50;98868.81;5010905;28;20206;-77
2023/08/30 06:00:40;;;;;;;4.38;3.97;;;;;;;15.48;70.18;98866.41;5028442;28;20552;-77
2023/08/30 06:03:06;;;;;;;3.00;2.70;;;;;;;15.53;69.81;98872.09;5029842;28;20291;-77
2023/08/30 06:05:31;;;;;;;4.33;3.97;;;;;;;15.59;69.74;98871.50;5031434;28;20739;-77
2023/08/30 06:07:57;;;;;;;4.57;4.17;;;;;;;15.68;69.40;98860.06;5031189;28;20209;-77
2023/08/30 06:10:23;;;;;;;3.93;3.53;;;;;;;15.82;68.98;98864.00;5028539;28;20196;-77
2023/08/30 06:12:48;;;;;;;4.07;3.67;;;;;;;15.90;68.72;98861.47;5029911;28;20271;-77
2023/08/30 06:15:14;;;;;;;3.83;3.50;;;;;;;15.96;68.66;98867.97;5030347;28;20690;-77
2023/08/30 06:17:39;;;;;;;4.40;3.47;;;;;;;15.97;68.49;98864.34;5027885;28;22043;-77
2023/08/30 06:20:05;;;;;;;3.83;3.53;;;;;;;16.00;68.49;98865.84;5029260;28;20213;-76
2023/08/30 06:22:32;;;;;;;4.05;3.28;;;;;;;16.03;68.53;98879.63;5029840;28;20291;-77
2023/08/30 06:24:57;;;;;;;4.87;4.10;;;;;;;16.10;68.37;98878.06;5030249;28;20682;-77
2023/08/30 06:27:24;;;;;;;4.00;3.60;;;;;;;16.31;68.17;98872.44;5029866;28;20202;-77
2023/08/30 06:29:50;;;;;;;5.90;4.43;;;;;;;16.62;67.30;98873.84;5029931;28;21929;-77
2023/08/30 06:32:16;;;;;;;4.30;3.95;;;;;;;16.97;66.30;98873.78;5029056;28;20219;-75
2023/08/30 06:34:42;;;;;;;4.03;3.72;;;;;;;17.29;65.35;98867.00;5015755;28;20220;-76
2023/08/30 06:37:07;;;;;;;6.30;4.33;;;;;;;17.59;64.34;98867.47;5031675;28;20186;-76
2023/08/30 06:39:34;;;;;;;3.50;3.27;;;;;;;17.82;63.77;98868.56;5026954;28;20217;-76
2023/08/30 06:42:00;;;;;;;3.65;3.15;;;;;;;17.95;63.25;98867.25;5029718;28;20221;-77
2023/08/30 06:44:27;;;;;;;5.05;4.57;;;;;;;17.96;63.06;98866.25;5011256;28;20212;-77
2023/08/30 06:46:52;;;;;;;4.83;3.70;;;;;;;17.90;63.01;98865.94;5028251;28;20198;-77
2023/08/30 06:49:17;;;;;;;4.43;4.03;;;;;;;17.87;62.92;98862.75;5032508;28;20464;-77
2023/08/30 06:51:43;;;;;;;6.27;3.93;;;;;;;17.82;63.29;98855.28;5028072;28;20194;-76
2023/08/30 06:54:08;;;;;;;4.63;4.17;;;;;;;17.75;62.94;98862.22;5028391;28;20206;-77
2023/08/30 06:56:34;;;;;;;4.47;4.07;;;;;;;17.71;63.01;98866.16;5028762;28;20294;-76
2023/08/30 06:58:59;;;;;;;4.00;3.70;;;;;;;17.72;63.04;98854.56;5028354;28;20574;-76
2023/08/30 07:01:24;;;;;;;4.70;3.80;;;;;;;17.75;63.04;98856.88;5029340;28;20211;-74
2023/08/30 07:03:50;;;;;;;3.90;3.60;;;;;;;17.79;62.70;98857.41;5029430;28;20631;-76
2023/08/30 07:06:15;;;;;;;3.93;3.63;;;;;;;17.80;62.75;98856.44;5027003;28;20197;-76
2023/08/30 07:08:41;;;;;;;3.43;3.23;;;;;;;17.84;62.67;98853.28;5030650;28;20301;-76
2023/08/30 07:11:06;;;;;;;3.90;3.53;;;;;;;17.86;62.11;98848.66;5028428;28;20194;-76
2023/08/30 07:13:32;;;;;;;5.10;3.70;;;;;;;17.89;62.25;98853.63;5031983;28;20203;-77
2023/08/30 07:18:39;;;;;;;3.57;3.13;;;;;;;17.98;62.04;98851.81;5116177;23;20458;-78
2023/08/30 07:21:05;;;;;;;3.53;3.23;;;;;;;18.06;61.62;98851.81;4990133;28;20487;-79
2023/08/30 07:23:30;;;;;;;4.43;4.03;;;;;;;18.16;61.48;98849.03;4994087;28;20208;-78
2023/08/30 07:25:58;;;;;;;3.77;3.47;;;;;;;18.33;60.98;98845.41;4991277;28;20265;-77
2023/08/30 07:28:24;;;;;;;5.70;3.27;;;;;;;18.41;61.04;98846.38;4991153;28;20716;-77
2023/08/30 07:30:49;;;;;;;5.13;3.20;;;;;;;18.40;61.08;98840.22;4991937;28;20962;-78
2023/08/30 07:33:15;;;;;;;6.10;4.33;;;;;;;18.41;60.89;98835.75;4991124;28;20346;-77
2023/08/30 07:35:41;;;;;;;7.53;3.73;;;;;;;18.40;61.15;98839.41;4992057;28;20212;-78
2023/08/30 07:38:06;;;;;;;3.57;3.37;;;;;;;18.39;61.34;98851.03;4991049;28;20598;-78
2023/08/30 07:40:31;;;;;;;4.13;3.83;;;;;;;18.37;61.33;98845.88;4991232;28;21108;-77
2023/08/30 07:42:57;;;;;;;4.10;3.80;;;;;;;18.40;61.59;98840.22;4990371;28;20217;-78
2023/08/30 07:45:22;;;;;;;6.63;4.17;;;;;;;18.44;61.82;98844.19;4991494;28;20195;-78
2023/08/30 07:47:48;;;;;;;4.97;4.57;;;;;;;18.43;61.62;98847.03;4988671;28;20290;-77
2023/08/30 07:50:13;;;;;;;3.60;3.30;;;;;;;18.43;61.89;98839.06;4991850;28;23245;-78
2023/08/30 07:52:38;;;;;;;5.30;3.83;;;;;;;18.47;61.81;98835.06;4992414;28;20202;-78
2023/08/30 07:55:04;;;;;;;5.83;4.10;;;;;;;18.50;61.76;98830.25;4990252;28;20194;-79
2023/08/30 07:57:29;;;;;;;4.60;3.57;;;;;;;18.59;61.46;98833.75;4990554;28;20277;-77
2023/08/30 07:59:55;;;;;;;4.27;3.67;;;;;;;18.67;61.05;98825.75;4993295;28;20214;-77
2023/08/30 08:02:20;;;;;;;5.60;3.83;;;;;;;18.72;60.83;98822.59;4990086;28;20571;-78
2023/08/30 08:04:46;;;;;;;4.00;3.63;;;;;;;18.75;60.22;98827.59;4993272;28;20216;-78
2023/08/30 08:07:11;;;;;;;5.60;3.43;;;;;;;18.84;59.97;98834.56;4988964;28;20203;-78
2023/08/30 08:09:37;;;;;;;4.43;3.97;;;;;;;18.98;59.99;98843.66;4991923;28;20209;-77
2023/08/30 08:12:03;;;;;;;3.83;3.47;;;;;;;19.16;59.49;98836.31;4990943;28;20702;-77
2023/08/30 08:14:28;;;;;;;3.80;3.40;;;;;;;19.40;59.02;98835.38;4991161;28;20225;-77
2023/08/30 08:16:54;;;;;;;3.40;3.10;;;;;;;19.63;58.52;98839.94;4985387;28;20462;-77
2023/08/30 08:19:21;;;;;;;3.47;3.17;;;;;;;19.84;57.77;98826.84;4992262;28;20776;-78
2023/08/30 08:21:46;;;;;;;3.77;3.47;;;;;;;20.05;57.23;98834.22;4988911;28;20205;-78
2023/08/30 08:24:12;;;;;;;3.60;3.40;;;;;;;20.17;56.68;98834.66;4992688;28;21521;-77
2023/08/30 08:26:37;;;;;;;3.97;3.13;;;;;;;20.17;56.42;98834.66;4988882;28;20206;-77
2023/08/30 08:29:03;;;;;;;3.03;2.83;;;;;;;20.38;56.07;98825.97;4990546;28;20208;-79
2023/08/30 08:31:29;;;;;;;2.30;2.10;;;;;;;20.74;55.04;98820.84;4991208;28;20660;-78
2023/08/30 08:34:11;;;;;;;3.13;2.90;;;;;;;21.16;54.15;98826.56;4987520;28;20565;-79
2023/08/30 08:36:38;;;;;;;5.37;3.63;;;;;;;21.51;52.63;98824.97;4989586;28;20563;-79
2023/08/30 08:39:04;;;;;;;2.87;2.67;;;;;;;21.78;51.90;98823.44;4990104;28;20709;-78
2023/08/30 08:41:41;;;;;;;4.13;3.20;;;;;;;21.78;51.60;98820.78;4990085;28;21124;-77
2023/08/30 08:44:08;;;;;;;12.87;8.07;;;;;;;21.63;51.51;98828.84;4989976;28;20268;-78
2023/08/30 08:46:36;;;;;;;4.30;3.90;;;;;;;21.53;52.03;98830.16;4990784;28;20779;-77
2023/08/30 08:49:08;;;;;;;4.07;3.50;;;;;;;21.48;52.59;98836.03;4988587;28;20450;-78
2023/08/30 08:51:35;;;;;;;4.23;3.93;;;;;;;21.55;52.72;98828.09;4989664;28;20453;-77
2023/08/30 08:54:03;;;;;;;5.37;3.20;;;;;;;21.62;52.44;98829.00;4989161;28;20552;-78
2023/08/30 08:56:30;;;;;;;4.50;3.37;;;;;;;21.63;52.53;98826.16;4990243;28;20555;-78
2023/08/30 08:58:56;;;;;;;3.97;2.73;;;;;;;21.61;52.84;98825.53;4990813;28;20468;-79
2023/08/30 09:01:22;;;;;;;3.60;3.10;;;;;;;21.57;52.51;98826.91;4989777;28;20559;-77
2023/08/30 09:03:47;;;;;;;8.60;3.27;;;;;;;21.52;53.30;98831.16;4990643;28;20203;-77
2023/08/30 09:06:15;;;;;;;3.57;3.27;;;;;;;21.51;53.31;98838.34;4989868;28;21059;-79
2023/08/30 09:08:40;;;;;;;3.30;3.00;;;;;;;21.49;53.33;98840.38;4990848;28;20460;-78
2023/08/30 09:11:06;;;;;;;5.10;3.33;;;;;;;21.44;53.52;98837.41;4987966;28;21197;-77
2023/08/30 09:13:31;;;;;;;3.77;3.13;;;;;;;21.51;53.61;98843.69;4988771;28;20219;-78
2023/08/30 09:15:57;;;;;;;3.60;3.30;;;;;;;21.63;52.88;98844.06;4990012;28;20528;-78
2023/08/30 09:18:27;;;;;;;3.00;2.70;;;;;;;21.56;52.82;98845.81;4988932;28;20238;-78
2023/08/30 09:20:53;;;;;;;4.27;3.20;;;;;;;21.51;53.31;98842.88;4989309;28;20650;-79
2023/08/30 09:23:20;;;;;;;3.90;3.40;;;;;;;21.62;53.18;98845.06;4973031;28;20509;-78
2023/08/30 09:25:46;;;;;;;3.03;2.73;;;;;;;21.69;53.39;98845.97;4989191;28;20824;-80
2023/08/30 09:28:12;;;;;;;4.00;3.70;;;;;;;21.82;53.08;98843.44;4989360;28;20911;-79
2023/08/30 09:30:39;;;;;;;4.13;3.67;;;;;;;21.91;53.12;98846.81;4988968;28;20982;-78
2023/08/30 09:33:05;;;;;;;5.20;4.50;;;;;;;21.93;52.83;98842.13;4987523;28;20286;-78
2023/08/30 09:35:31;;;;;;;3.13;2.90;;;;;;;21.93;52.57;98842.13;4990741;28;20689;-79
2023/08/30 09:37:57;;;;;;;4.30;2.93;;;;;;;22.06;52.67;98836.91;4986885;28;20478;-78
2023/08/30 09:40:22;;;;;;;3.20;3.00;;;;;;;22.24;52.37;98843.69;4989252;28;20437;-77
2023/08/30 09:42:48;;;;;;;3.47;3.17;;;;;;;22.24;51.73;98839.16;4989595;28;20336;-77
2023/08/30 09:45:22;;;;;;;3.57;3.27;;;;;;;22.23;51.96;98842.88;4988313;28;20227;-78
2023/08/30 09:47:51;;;;;;;3.83;3.40;;;;;;;22.35;51.14;98845.84;4988261;28;20206;-78
2023/08/30 09:50:18;;;;;;;2.90;2.70;;;;;;;22.52;50.94;98838.38;4985903;28;20477;-78
2023/08/30 09:52:46;;;;;;;4.60;2.93;;;;;;;22.74;49.91;98839.19;4988625;28;20467;-78
2023/08/30 09:55:11;;;;;;;3.50;2.73;;;;;;;22.97;49.31;98834.41;4971510;28;20656;-79
2023/08/30 09:57:37;;;;;;;6.73;3.20;;;;;;;23.21;48.49;98840.31;4988407;28;20511;-79
2023/08/30 10:00:03;;;;;;;4.03;3.07;;;;;;;23.27;48.29;98836.84;4970242;28;20233;-78
2023/08/30 10:02:33;;;;;;;3.33;2.87;;;;;;;23.40;47.64;98836.09;4971435;28;20214;-78
2023/08/30 10:04:59;;;;;;;3.33;3.13;;;;;;;23.36;47.91;98830.31;4970750;28;20996;-78
2023/08/30 10:07:25;;;;;;;2.90;2.70;;;;;;;23.33;47.98;98832.53;4987828;28;20436;-79
2023/08/30 10:09:52;;;;;;;2.80;2.50;;;;;;;23.33;47.63;98821.81;4991230;28;20763;-78
2023/08/30 10:12:22;;;;;;;3.27;2.90;;;;;;;23.27;48.07;98823.44;4987938;28;20202;-79
2023/08/30 10:14:51;;;;;;;3.40;3.10;;;;;;;23.26;48.01;98821.00;4985443;28;20461;-77
2023/08/30 10:17:20;;;;;;;3.13;2.93;;;;;;;23.25;47.82;98822.00;4969749;28;20808;-80
2023/08/30 10:19:46;;;;;;;4.40;2.90;;;;;;;23.24;48.14;98820.34;4989199;28;20256;-77
2023/08/30 10:22:17;;;;;;;3.80;3.40;;;;;;;23.19;48.28;98815.56;4988425;28;20477;-78
2023/08/30 10:24:51;;;;;;;3.50;3.20;;;;;;;23.18;48.54;98812.06;4988841;28;20676;-80
2023/08/30 10:27:17;;;;;;;3.33;2.93;;;;;;;23.21;48.72;98813.53;4989558;28;20432;-77
2023/08/30 10:29:45;;;;;;;3.83;2.93;;;;;;;23.17;48.48;98806.94;4991163;28;21022;-77
2023/08/30 10:32:10;;;;;;;3.40;3.10;;;;;;;23.04;48.70;98809.53;4990875;28;20493;-77
2023/08/30 10:34:36;;;;;;;3.40;3.10;;;;;;;23.03;49.13;98811.38;4991732;28;20520;-77
2023/08/30 10:37:05;;;;;;;3.13;2.93;;;;;;;23.00;48.38;98795.69;4992749;28;20225;-77
2023/08/30 10:39:41;;;;;;;2.80;2.53;;;;;;;22.98;48.28;98803.13;4993439;28;20517;-77
2023/08/30 10:42:12;;;;;;;3.77;3.23;;;;;;;23.10;47.86;98801.53;4989584;28;20828;-77
2023/08/30 10:45:07;;;;;;;3.77;2.73;;;;;;;23.24;47.75;98807.78;4991670;28;20447;-77
2023/08/30 10:47:37;;;;;;;3.40;3.10;;;;;;;23.34;47.50;98799.38;4976936;28;20489;-77
2023/08/30 10:50:07;;;;;;;4.07;3.77;;;;;;;23.40;47.65;98799.41;4994253;28;20490;-78
2023/08/30 10:52:32;;;;;;;3.40;3.10;;;;;;;23.42;47.37;98796.53;4994172;28;20944;-77
2023/08/30 10:55:11;;;;;;;3.40;2.70;;;;;;;23.45;46.70;98796.13;4990002;28;20735;-77
2023/08/30 10:57:41;;;;;;;3.60;2.80;;;;;;;23.42;46.20;98796.53;4992740;28;20691;-77
2023/08/30 11:00:13;;;;;;;3.47;3.17;;;;;;;23.40;46.26;98787.84;4988629;28;20440;-77
2023/08/30 11:02:43;;;;;;;3.37;3.07;;;;;;;23.33;46.14;98797.72;4990955;28;20493;-77
2023/08/30 11:05:08;;;;;;;4.10;3.70;;;;;;;23.31;45.79;98792.56;4993299;28;20428;-77
2023/08/30 11:07:34;;;;;;;2.70;2.30;;;;;;;23.39;45.59;98791.56;4994626;28;20440;-77
2023/08/30 11:10:00;;;;;;;5.40;2.90;;;;;;;23.45;45.61;98785.41;4993516;28;20864;-77
2023/08/30 11:12:26;;;;;;;3.40;3.10;;;;;;;23.46;45.92;98784.38;4992667;28;20424;-77
2023/08/30 11:14:54;;;;;;;4.23;3.60;;;;;;;23.53;45.73;98785.22;4991907;28;20218;-77
2023/08/30 11:17:20;;;;;;;3.30;3.03;;;;;;;23.59;45.83;98784.41;4992708;28;20223;-77
2023/08/30 11:19:45;;;;;;;4.20;3.00;;;;;;;23.69;45.45;98770.63;4993166;28;20454;-77
2023/08/30 11:22:13;;;;;;;2.77;2.57;;;;;;;;;;4996616;28;20691;-77
2023/08/30 11:24:40;;;;;;;3.83;3.47;;;;;;;23.79;45.17;98756.84;4993783;28;20203;-77
2023/08/30 11:27:06;;;;;;;4.00;3.33;;;;;;;23.85;44.89;98761.41;4995162;28;20741;-75
2023/08/30 11:29:31;;;;;;;3.23;2.90;;;;;;;23.83;44.38;98750.88;4994647;28;20440;-77
2023/08/30 11:31:57;;;;;;;2.83;2.60;;;;;;;23.81;44.22;98755.59;4990160;28;20496;-77
2023/08/30 11:34:22;;;;;;;3.90;3.37;;;;;;;23.88;44.31;98752.13;4994187;28;20369;-77
2023/08/30 11:36:49;;;;;;;2.80;2.60;;;;;;;23.91;44.34;98752.53;4992439;28;20289;-77